sensor_id;sensor_type;location;lat;lon;timestamp;pressure;altitude;pressure_sealevel;temperature;humidity
21236;BME280;10775;42.678;26.324;2022-07-23T00:02:05;98741.34;;;25.59;43.63
21236;BME280;10775;42.678;26.324;2022-07-23T00:04:32;98749.78;;;25.32;48.48
21236;BME280;10775;42.678;26.324;2022-07-23T00:06:58;98747.09;;;25.43;48.10
21236;BME280;10775;42.678;26.324;2022-07-23T00:09:23;98737.50;;;25.29;47.95
21236;BME280;10775;42.678;26.324;2022-07-23T00:11:49;98743.22;;;25.25;48.90
21236;BME280;10775;42.678;26.324;2022-07-23T00:14:14;98749.66;;;25.33;46.28
21236;BME280;10775;42.678;26.324;2022-07-23T00:16:40;98737.50;;;25.41;46.06
21236;BME280;10775;42.678;26.324;2022-07-23T00:19:06;98732.25;;;25.50;47.97
21236;BME280;10775;42.678;26.324;2022-07-23T00:21:31;98739.31;;;25.63;47.74
21236;BME280;10775;42.678;26.324;2022-07-23T00:23:57;98733.47;;;25.57;47.82
21236;BME280;10775;42.678;26.324;2022-07-23T00:26:22;98732.28;;;25.39;48.26
21236;BME280;10775;42.678;26.324;2022-07-23T00:28:48;98741.75;;;25.32;48.42
21236;BME280;10775;42.678;26.324;2022-07-23T00:31:13;98738.59;;;25.27;48.41
21236;BME280;10775;42.678;26.324;2022-07-23T00:33:39;98733.94;;;25.06;49.00
21236;BME280;10775;42.678;26.324;2022-07-23T00:36:05;98725.34;;;25.36;48.35
21236;BME280;10775;42.678;26.324;2022-07-23T00:38:30;98723.53;;;25.37;48.18
21236;BME280;10775;42.678;26.324;2022-07-23T00:40:56;98720.63;;;25.29;48.41
21236;BME280;10775;42.678;26.324;2022-07-23T00:43:22;98726.44;;;25.23;48.50
21236;BME280;10775;42.678;26.324;2022-07-23T00:45:49;98724.72;;;25.33;48.25
21236;BME280;10775;42.678;26.324;2022-07-23T00:48:14;98728.16;;;25.24;48.41
21236;BME280;10775;42.678;26.324;2022-07-23T00:50:40;98723.75;;;25.11;44.95
21236;BME280;10775;42.678;26.324;2022-07-23T00:53:05;98724.34;;;25.04;48.00
21236;BME280;10775;42.678;26.324;2022-07-23T00:55:31;98721.50;;;24.60;49.86
21236;BME280;10775;42.678;26.324;2022-07-23T00:57:58;98724.38;;;23.98;45.94
21236;BME280;10775;42.678;26.324;2022-07-23T01:00:24;98723.00;;;23.68;48.00
21236;BME280;10775;42.678;26.324;2022-07-23T01:02:49;98720.50;;;24.26;50.72
21236;BME280;10775;42.678;26.324;2022-07-23T01:05:15;98720.78;;;24.69;49.65
21236;BME280;10775;42.678;26.324;2022-07-23T01:07:41;98719.72;;;24.94;49.27
21236;BME280;10775;42.678;26.324;2022-07-23T01:10:07;98723.75;;;25.11;48.54
21236;BME280;10775;42.678;26.324;2022-07-23T01:12:53;98720.97;;;25.24;48.24
21236;BME280;10775;42.678;26.324;2022-07-23T01:15:19;98723.28;;;25.29;47.43
21236;BME280;10775;42.678;26.324;2022-07-23T01:17:44;98725.00;;;25.19;48.12
21236;BME280;10775;42.678;26.324;2022-07-23T01:20:10;98724.47;;;25.13;48.52
21236;BME280;10775;42.678;26.324;2022-07-23T01:22:35;98724.47;;;25.13;48.66
21236;BME280;10775;42.678;26.324;2022-07-23T01:25:01;98724.72;;;25.33;48.27
21236;BME280;10775;42.678;26.324;2022-07-23T01:27:26;98720.09;;;25.57;47.47
21236;BME280;10775;42.678;26.324;2022-07-23T01:29:53;98717.69;;;25.32;47.36
21236;BME280;10775;42.678;26.324;2022-07-23T01:32:19;98719.53;;;25.31;48.08
21236;BME280;10775;42.678;26.324;2022-07-23T01:34:45;98713.44;;;25.29;47.95
21236;BME280;10775;42.678;26.324;2022-07-23T01:37:10;98712.69;;;25.38;47.89
21236;BME280;10775;42.678;26.324;2022-07-23T01:39:36;98711.34;;;25.44;47.54
21236;BME280;10775;42.678;26.324;2022-07-23T01:42:01;98720.22;;;25.11;47.92
21236;BME280;10775;42.678;26.324;2022-07-23T01:44:27;98715.47;;;24.81;49.27
21236;BME280;10775;42.678;26.324;2022-07-23T01:46:52;98716.69;;;24.88;48.91
21236;BME280;10775;42.678;26.324;2022-07-23T01:49:18;98712.72;;;25.16;48.42
21236;BME280;10775;42.678;26.324;2022-07-23T01:51:43;98708.09;;;25.29;47.66
21236;BME280;10775;42.678;26.324;2022-07-23T01:54:26;98713.75;;;24.91;44.64
21236;BME280;10775;42.678;26.324;2022-07-23T01:56:52;98709.28;;;24.80;49.04
21236;BME280;10775;42.678;26.324;2022-07-23T01:59:18;98713.13;;;24.87;48.94
21236;BME280;10775;42.678;26.324;2022-07-23T02:01:43;98708.44;;;25.13;48.30
21236;BME280;10775;42.678;26.324;2022-07-23T02:04:09;98708.28;;;25.15;47.91
21236;BME280;10775;42.678;26.324;2022-07-23T02:06:34;98707.47;;;25.26;47.89
21236;BME280;10775;42.678;26.324;2022-07-23T02:09:00;98704.78;;;25.14;48.07
21236;BME280;10775;42.678;26.324;2022-07-23T02:11:25;98706.59;;;24.91;48.59
21236;BME280;10775;42.678;26.324;2022-07-23T02:13:51;98702.09;;;24.81;48.51
21236;BME280;10775;42.678;26.324;2022-07-23T02:16:16;98706.22;;;24.73;49.16
21236;BME280;10775;42.678;26.324;2022-07-23T02:18:42;98703.53;;;24.73;49.29
21236;BME280;10775;42.678;26.324;2022-07-23T02:21:07;98704.78;;;25.14;48.32
21236;BME280;10775;42.678;26.324;2022-07-23T02:23:33;98701.72;;;25.08;47.79
21236;BME280;10775;42.678;26.324;2022-07-23T02:25:58;98700.25;;;24.81;48.58
21236;BME280;10775;42.678;26.324;2022-07-23T02:28:24;98709.25;;;24.91;48.56
21236;BME280;10775;42.678;26.324;2022-07-23T02:30:50;98713.28;;;24.97;48.45
21236;BME280;10775;42.678;26.324;2022-07-23T02:33:15;98709.38;;;24.90;48.45
21236;BME280;10775;42.678;26.324;2022-07-23T02:35:41;98712.03;;;24.67;49.00
21236;BME280;10775;42.678;26.324;2022-07-23T02:38:06;98702.56;;;24.74;48.59
21236;BME280;10775;42.678;26.324;2022-07-23T02:40:32;98711.94;;;24.80;48.82
21236;BME280;10775;42.678;26.324;2022-07-23T02:42:57;98710.97;;;24.35;49.59
21236;BME280;10775;42.678;26.324;2022-07-23T02:45:23;98715.44;;;24.69;49.00
21236;BME280;10775;42.678;26.324;2022-07-23T02:47:48;98718.88;;;24.94;48.39
21236;BME280;10775;42.678;26.324;2022-07-23T02:50:14;98712.31;;;25.09;48.00
21236;BME280;10775;42.678;26.324;2022-07-23T02:52:40;98718.84;;;25.05;48.08
21236;BME280;10775;42.678;26.324;2022-07-23T02:55:06;98717.06;;;25.06;48.11
21236;BME280;10775;42.678;26.324;2022-07-23T02:57:31;98719.59;;;25.07;48.04
21236;BME280;10775;42.678;26.324;2022-07-23T02:59:57;98719.97;;;25.14;47.85
21236;BME280;10775;42.678;26.324;2022-07-23T03:02:23;98715.63;;;25.24;47.54
21236;BME280;10775;42.678;26.324;2022-07-23T03:04:49;98724.75;;;25.22;47.54
21236;BME280;10775;42.678;26.324;2022-07-23T03:07:16;98730.81;;;25.35;47.32
21236;BME280;10775;42.678;26.324;2022-07-23T03:09:42;98727.63;;;25.41;47.21
21236;BME280;10775;42.678;26.324;2022-07-23T03:12:08;98728.88;;;25.37;47.08
21236;BME280;10775;42.678;26.324;2022-07-23T03:14:33;98742.97;;;25.28;47.31
21236;BME280;10775;42.678;26.324;2022-07-23T03:16:59;98742.22;;;25.14;47.56
21236;BME280;10775;42.678;26.324;2022-07-23T03:19:25;98742.19;;;24.81;48.14
21236;BME280;10775;42.678;26.324;2022-07-23T03:21:51;98733.53;;;24.77;48.40
21236;BME280;10775;42.678;26.324;2022-07-23T03:24:17;98740.22;;;24.60;48.71
21236;BME280;10775;42.678;26.324;2022-07-23T03:26:45;98740.25;;;24.83;48.38
21236;BME280;10775;42.678;26.324;2022-07-23T03:29:11;98733.44;;;24.79;48.67
21236;BME280;10775;42.678;26.324;2022-07-23T03:31:36;98738.28;;;24.85;48.41
21236;BME280;10775;42.678;26.324;2022-07-23T03:34:02;98743.81;;;25.06;47.95
21236;BME280;10775;42.678;26.324;2022-07-23T03:36:28;98740.63;;;25.01;47.87
21236;BME280;10775;42.678;26.324;2022-07-23T03:38:53;98737.97;;;25.01;48.25
21236;BME280;10775;42.678;26.324;2022-07-23T03:41:20;98738.22;;;25.09;47.58
21236;BME280;10775;42.678;26.324;2022-07-23T03:43:45;98733.09;;;25.06;47.48
21236;BME280;10775;42.678;26.324;2022-07-23T03:46:11;98728.13;;;25.01;47.78
21236;BME280;10775;42.678;26.324;2022-07-23T03:48:37;98728.56;;;24.84;47.94
21236;BME280;10775;42.678;26.324;2022-07-23T03:51:03;98734.41;;;24.89;47.81
21236;BME280;10775;42.678;26.324;2022-07-23T03:53:28;98737.41;;;24.62;48.57
21236;BME280;10775;42.678;26.324;2022-07-23T03:55:54;98731.84;;;24.76;48.06
21236;BME280;10775;42.678;26.324;2022-07-23T03:58:20;98743.19;;;25.02;47.55
21236;BME280;10775;42.678;26.324;2022-07-23T04:00:45;98732.84;;;24.86;47.95
21236;BME280;10775;42.678;26.324;2022-07-23T04:03:11;98735.00;;;24.81;47.96
21236;BME280;10775;42.678;26.324;2022-07-23T04:05:37;98732.78;;;24.64;48.41
21236;BME280;10775;42.678;26.324;2022-07-23T04:08:02;98737.69;;;24.70;48.17
21236;BME280;10775;42.678;26.324;2022-07-23T04:10:28;98735.22;;;24.67;48.38
21236;BME280;10775;42.678;26.324;2022-07-23T04:12:53;98738.19;;;24.86;47.84
21236;BME280;10775;42.678;26.324;2022-07-23T04:15:19;98742.72;;;25.08;47.40
21236;BME280;10775;42.678;26.324;2022-07-23T04:17:44;98743.31;;;25.12;47.59
21236;BME280;10775;42.678;26.324;2022-07-23T04:20:12;98739.28;;;24.95;47.64
21236;BME280;10775;42.678;26.324;2022-07-23T04:22:38;98744.50;;;25.08;47.37
21236;BME280;10775;42.678;26.324;2022-07-23T04:25:04;98745.00;;;25.13;47.03
21236;BME280;10775;42.678;26.324;2022-07-23T04:27:30;98745.75;;;25.04;47.41
21236;BME280;10775;42.678;26.324;2022-07-23T04:29:55;98750.34;;;25.13;47.12
21236;BME280;10775;42.678;26.324;2022-07-23T04:32:21;98749.50;;;25.12;47.30
21236;BME280;10775;42.678;26.324;2022-07-23T04:34:46;98743.22;;;25.25;46.85
21236;BME280;10775;42.678;26.324;2022-07-23T04:37:12;98751.22;;;25.36;46.82
21236;BME280;10775;42.678;26.324;2022-07-23T04:39:37;98743.69;;;25.41;46.38
21236;BME280;10775;42.678;26.324;2022-07-23T04:42:04;98748.56;;;25.36;46.52
21236;BME280;10775;42.678;26.324;2022-07-23T04:44:30;98748.44;;;25.37;46.49
21236;BME280;10775;42.678;26.324;2022-07-23T04:46:55;98749.28;;;25.38;46.60
21236;BME280;10775;42.678;26.324;2022-07-23T04:49:21;98742.38;;;25.47;46.01
21236;BME280;10775;42.678;26.324;2022-07-23T04:51:46;98741.50;;;25.35;46.50
21236;BME280;10775;42.678;26.324;2022-07-23T04:54:12;98744.19;;;25.35;46.36
21236;BME280;10775;42.678;26.324;2022-07-23T04:56:38;98741.50;;;25.35;46.76
21236;BME280;10775;42.678;26.324;2022-07-23T04:59:03;98740.03;;;25.53;46.40
21236;BME280;10775;42.678;26.324;2022-07-23T05:01:29;98750.75;;;25.65;45.81
21236;BME280;10775;42.678;26.324;2022-07-23T05:03:54;98737.31;;;25.76;45.71
21236;BME280;10775;42.678;26.324;2022-07-23T05:06:20;98741.84;;;25.75;45.41
21236;BME280;10775;42.678;26.324;2022-07-23T05:08:45;98743.66;;;25.75;45.57
21236;BME280;10775;42.678;26.324;2022-07-23T05:11:11;98736.81;;;25.82;45.30
21236;BME280;10775;42.678;26.324;2022-07-23T05:13:36;98742.56;;;25.89;45.19
21236;BME280;10775;42.678;26.324;2022-07-23T05:16:02;98734.47;;;26.00;44.98
21236;BME280;10775;42.678;26.324;2022-07-23T05:18:27;98733.50;;;26.01;45.10
21236;BME280;10775;42.678;26.324;2022-07-23T05:20:53;98738.50;;;26.06;44.59
21236;BME280;10775;42.678;26.324;2022-07-23T05:23:19;98738.09;;;26.10;44.75
21236;BME280;10775;42.678;26.324;2022-07-23T05:25:44;98731.63;;;26.13;44.38
21236;BME280;10775;42.678;26.324;2022-07-23T05:28:10;98734.31;;;26.13;44.63
21236;BME280;10775;42.678;26.324;2022-07-23T05:30:35;98740.91;;;26.09;43.50
21236;BME280;10775;42.678;26.324;2022-07-23T05:33:01;98739.91;;;26.10;44.48
21236;BME280;10775;42.678;26.324;2022-07-23T05:35:26;98738.72;;;26.02;44.48
21236;BME280;10775;42.678;26.324;2022-07-23T05:37:52;98743.75;;;25.96;44.77
21236;BME280;10775;42.678;26.324;2022-07-23T05:40:18;98738.44;;;26.17;44.55
21236;BME280;10775;42.678;26.324;2022-07-23T05:42:43;98738.47;;;26.38;44.13
21236;BME280;10775;42.678;26.324;2022-07-23T05:45:10;98743.44;;;26.42;43.61
21236;BME280;10775;42.678;26.324;2022-07-23T05:47:46;98746.97;;;26.54;43.70
21236;BME280;10775;42.678;26.324;2022-07-23T05:50:13;98742.50;;;26.32;44.14
21236;BME280;10775;42.678;26.324;2022-07-23T05:52:39;98745.47;;;26.50;43.66
21236;BME280;10775;42.678;26.324;2022-07-23T05:55:05;98744.84;;;26.58;43.41
21236;BME280;10775;42.678;26.324;2022-07-23T05:57:31;98744.59;;;26.61;43.44
21236;BME280;10775;42.678;26.324;2022-07-23T05:59:56;98745.28;;;26.42;41.00
21236;BME280;10775;42.678;26.324;2022-07-23T06:02:22;98737.28;;;26.63;43.29
21236;BME280;10775;42.678;26.324;2022-07-23T06:04:47;98744.19;;;26.86;42.94
21236;BME280;10775;42.678;26.324;2022-07-23T06:07:13;98740.59;;;26.76;40.62
21236;BME280;10775;42.678;26.324;2022-07-23T06:09:39;98737.72;;;26.68;42.76
21236;BME280;10775;42.678;26.324;2022-07-23T06:12:04;98742.13;;;26.37;42.05
21236;BME280;10775;42.678;26.324;2022-07-23T06:14:30;98738.13;;;26.63;42.96
21236;BME280;10775;42.678;26.324;2022-07-23T06:16:56;98734.34;;;26.97;42.09
21236;BME280;10775;42.678;26.324;2022-07-23T06:19:21;98736.09;;;26.77;40.98
21236;BME280;10775;42.678;26.324;2022-07-23T06:21:47;98733.09;;;26.70;41.14
21236;BME280;10775;42.678;26.324;2022-07-23T06:24:12;98734.34;;;26.87;42.44
21236;BME280;10775;42.678;26.324;2022-07-23T06:26:38;98738.22;;;27.04;41.61
21236;BME280;10775;42.678;26.324;2022-07-23T06:29:03;98733.19;;;27.82;39.98
21236;BME280;10775;42.678;26.324;2022-07-23T06:31:29;98723.88;;;28.15;40.01
21236;BME280;10775;42.678;26.324;2022-07-23T06:33:54;98728.25;;;28.55;39.07
21236;BME280;10775;42.678;26.324;2022-07-23T06:36:20;98726.59;;;28.44;37.58
21236;BME280;10775;42.678;26.324;2022-07-23T06:38:46;98730.53;;;28.50;37.94
21236;BME280;10775;42.678;26.324;2022-07-23T06:41:11;98729.66;;;29.25;36.10
21236;BME280;10775;42.678;26.324;2022-07-23T06:43:37;98723.94;;;30.29;34.47
21236;BME280;10775;42.678;26.324;2022-07-23T06:46:02;98720.47;;;30.99;33.21
21236;BME280;10775;42.678;26.324;2022-07-23T06:48:28;98712.47;;;32.17;32.08
21236;BME280;10775;42.678;26.324;2022-07-23T06:50:54;98711.53;;;33.93;29.16
21236;BME280;10775;42.678;26.324;2022-07-23T06:53:20;98713.25;;;32.99;29.75
21236;BME280;10775;42.678;26.324;2022-07-23T06:55:46;98716.56;;;33.34;29.82
21236;BME280;10775;42.678;26.324;2022-07-23T06:58:12;98712.44;;;32.99;30.41
21236;BME280;10775;42.678;26.324;2022-07-23T07:00:39;98706.41;;;34.07;29.94
21236;BME280;10775;42.678;26.324;2022-07-23T07:03:05;98708.72;;;33.55;28.60
21236;BME280;10775;42.678;26.324;2022-07-23T07:05:31;98715.44;;;33.20;29.36
21236;BME280;10775;42.678;26.324;2022-07-23T07:07:56;98711.31;;;34.03;29.25
21236;BME280;10775;42.678;26.324;2022-07-23T07:10:22;98707.97;;;33.70;28.57
21236;BME280;10775;42.678;26.324;2022-07-23T07:12:48;98713.16;;;34.03;28.03
21236;BME280;10775;42.678;26.324;2022-07-23T07:15:13;98709.56;;;34.33;28.47
21236;BME280;10775;42.678;26.324;2022-07-23T07:17:39;98711.88;;;34.97;27.87
21236;BME280;10775;42.678;26.324;2022-07-23T07:20:05;98715.41;;;35.21;27.38
21236;BME280;10775;42.678;26.324;2022-07-23T07:22:31;98710.28;;;36.13;27.08
21236;BME280;10775;42.678;26.324;2022-07-23T07:24:57;98710.63;;;34.09;27.31
21236;BME280;10775;42.678;26.324;2022-07-23T07:27:22;98702.41;;;33.63;28.53
21236;BME280;10775;42.678;26.324;2022-07-23T07:29:48;98702.69;;;34.46;27.67
21236;BME280;10775;42.678;26.324;2022-07-23T07:32:14;98704.78;;;33.89;28.08
21236;BME280;10775;42.678;26.324;2022-07-23T07:34:39;98712.78;;;32.96;29.37
21236;BME280;10775;42.678;26.324;2022-07-23T07:37:05;98709.22;;;34.36;29.14
21236;BME280;10775;42.678;26.324;2022-07-23T07:39:30;98703.53;;;34.46;28.24
21236;BME280;10775;42.678;26.324;2022-07-23T07:41:56;98702.88;;;34.82;27.15
21236;BME280;10775;42.678;26.324;2022-07-23T07:44:21;98691.53;;;35.82;27.65
21236;BME280;10775;42.678;26.324;2022-07-23T07:46:47;98702.56;;;35.30;26.88
21236;BME280;10775;42.678;26.324;2022-07-23T07:49:13;98689.06;;;35.87;26.02
21236;BME280;10775;42.678;26.324;2022-07-23T07:51:38;98694.44;;;35.51;26.09
21236;BME280;10775;42.678;26.324;2022-07-23T07:54:04;98684.53;;;35.58;25.97
21236;BME280;10775;42.678;26.324;2022-07-23T07:56:29;98691.84;;;35.94;25.83
21236;BME280;10775;42.678;26.324;2022-07-23T07:58:55;98690.63;;;35.31;26.77
21236;BME280;10775;42.678;26.324;2022-07-23T08:01:21;98685.03;;;34.88;27.44
21236;BME280;10775;42.678;26.324;2022-07-23T08:03:46;98683.09;;;35.77;27.04
21236;BME280;10775;42.678;26.324;2022-07-23T08:06:12;98678.97;;;36.24;26.11
21236;BME280;10775;42.678;26.324;2022-07-23T08:08:38;98688.84;;;34.93;26.55
21236;BME280;10775;42.678;26.324;2022-07-23T08:11:03;98683.41;;;35.67;26.38
21236;BME280;10775;42.678;26.324;2022-07-23T08:13:29;98688.75;;;35.46;27.43
21236;BME280;10775;42.678;26.324;2022-07-23T08:15:54;98681.00;;;35.79;26.17
21236;BME280;10775;42.678;26.324;2022-07-23T08:18:20;98677.41;;;35.72;25.10
21236;BME280;10775;42.678;26.324;2022-07-23T08:20:46;98681.41;;;35.76;25.74
21236;BME280;10775;42.678;26.324;2022-07-23T08:23:11;98675.84;;;36.49;24.98
21236;BME280;10775;42.678;26.324;2022-07-23T08:25:40;98668.84;;;36.61;24.55
21236;BME280;10775;42.678;26.324;2022-07-23T08:28:08;98671.72;;;36.31;25.34
21236;BME280;10775;42.678;26.324;2022-07-23T08:30:34;98673.91;;;36.43;24.62
21236;BME280;10775;42.678;26.324;2022-07-23T08:35:37;98677.97;;;36.53;25.39
21236;BME280;10775;42.678;26.324;2022-07-23T08:38:05;98682.47;;;36.96;25.30
21236;BME280;10775;42.678;26.324;2022-07-23T08:40:36;98676.66;;;36.71;25.10
21236;BME280;10775;42.678;26.324;2022-07-23T08:43:11;98682.56;;;36.53;24.23
21236;BME280;10775;42.678;26.324;2022-07-23T08:45:39;98678.59;;;36.77;24.97
21236;BME280;10775;42.678;26.324;2022-07-23T08:48:07;98684.78;;;36.00;25.51
21236;BME280;10775;42.678;26.324;2022-07-23T08:50:34;98672.22;;;36.42;25.97
21236;BME280;10775;42.678;26.324;2022-07-23T08:53:02;98677.25;;;36.66;24.97
21236;BME280;10775;42.678;26.324;2022-07-23T08:55:30;98679.63;;;36.76;24.21
21236;BME280;10775;42.678;26.324;2022-07-23T08:57:56;98675.53;;;36.37;25.23
21236;BME280;10775;42.678;26.324;2022-07-23T09:00:22;98676.44;;;36.44;24.93
21236;BME280;10775;42.678;26.324;2022-07-23T09:02:48;98680.69;;;35.89;25.75
21236;BME280;10775;42.678;26.324;2022-07-23T09:05:15;98674.28;;;35.75;26.28
21236;BME280;10775;42.678;26.324;2022-07-23T09:08:18;98667.84;;;35.61;26.69
21236;BME280;10775;42.678;26.324;2022-07-23T09:15:56;98652.91;;;36.58;25.56
21236;BME280;10775;42.678;26.324;2022-07-23T09:18:45;98652.53;;;36.40;25.86
21236;BME280;10775;42.678;26.324;2022-07-23T09:21:34;98663.63;;;36.66;25.90
21236;BME280;10775;42.678;26.324;2022-07-23T09:24:01;98665.22;;;36.82;24.94
21236;BME280;10775;42.678;26.324;2022-07-23T09:29:20;98644.78;;;36.65;25.77
21236;BME280;10775;42.678;26.324;2022-07-23T09:34:16;98651.72;;;36.18;26.33
21236;BME280;10775;42.678;26.324;2022-07-23T09:36:43;98639.88;;;35.82;26.98
21236;BME280;10775;42.678;26.324;2022-07-23T09:39:09;98650.03;;;36.17;26.51
21236;BME280;10775;42.678;26.324;2022-07-23T09:41:46;98642.63;;;35.89;25.48
21236;BME280;10775;42.678;26.324;2022-07-23T09:44:14;98642.59;;;34.87;26.42
21236;BME280;10775;42.678;26.324;2022-07-23T09:46:42;98634.47;;;35.31;26.19
21236;BME280;10775;42.678;26.324;2022-07-23T09:49:17;98633.47;;;35.90;26.80
21236;BME280;10775;42.678;26.324;2022-07-23T09:51:55;98625.97;;;36.42;25.71
21236;BME280;10775;42.678;26.324;2022-07-23T09:56:52;98621.16;;;35.73;25.43
21236;BME280;10775;42.678;26.324;2022-07-23T09:59:23;98613.69;;;35.81;25.64
21236;BME280;10775;42.678;26.324;2022-07-23T10:01:50;98613.69;;;36.24;26.30
21236;BME280;10775;42.678;26.324;2022-07-23T10:04:18;98611.78;;;36.18;25.37
21236;BME280;10775;42.678;26.324;2022-07-23T10:06:45;98610.53;;;36.49;25.25
21236;BME280;10775;42.678;26.324;2022-07-23T10:09:12;98607.56;;;36.44;24.90
21236;BME280;10775;42.678;26.324;2022-07-23T10:11:41;98608.50;;;36.58;24.93
21236;BME280;10775;42.678;26.324;2022-07-23T10:14:07;98610.66;;;36.97;24.56
21236;BME280;10775;42.678;26.324;2022-07-23T10:16:33;98607.88;;;36.06;25.08
21236;BME280;10775;42.678;26.324;2022-07-23T10:18:59;98608.34;;;35.88;25.59
21236;BME280;10775;42.678;26.324;2022-07-23T10:21:34;98597.47;;;36.38;25.94
21236;BME280;10775;42.678;26.324;2022-07-23T10:24:30;98599.75;;;36.62;25.04
21236;BME280;10775;42.678;26.324;2022-07-23T10:33:21;98591.47;;;36.49;25.15
21236;BME280;10775;42.678;26.324;2022-07-23T10:36:09;98589.75;;;36.13;25.15
21236;BME280;10775;42.678;26.324;2022-07-23T10:38:47;98579.50;;;36.15;25.40
21236;BME280;10775;42.678;26.324;2022-07-23T10:41:13;98582.19;;;36.37;24.57
21236;BME280;10775;42.678;26.324;2022-07-23T10:43:39;98581.88;;;36.25;24.49
21236;BME280;10775;42.678;26.324;2022-07-23T10:46:30;98579.31;;;35.74;25.36
21236;BME280;10775;42.678;26.324;2022-07-23T10:49:35;98574.88;;;35.51;25.31
21236;BME280;10775;42.678;26.324;2022-07-23T10:54:43;98564.63;;;36.11;26.26
21236;BME280;10775;42.678;26.324;2022-07-23T10:57:10;98562.31;;;36.43;25.15
21236;BME280;10775;42.678;26.324;2022-07-23T11:02:49;98545.88;;;36.23;24.55
21236;BME280;10775;42.678;26.324;2022-07-23T11:05:20;98551.31;;;36.23;25.74
21236;BME280;10775;42.678;26.324;2022-07-23T11:10:35;98555.84;;;35.87;25.47
21236;BME280;10775;42.678;26.324;2022-07-23T11:16:08;98544.09;;;36.08;25.50
21236;BME280;10775;42.678;26.324;2022-07-23T11:24:08;98531.47;;;36.57;25.23
21236;BME280;10775;42.678;26.324;2022-07-23T11:32:08;98533.44;;;36.42;24.70
21236;BME280;10775;42.678;26.324;2022-07-23T11:34:45;98526.06;;;36.35;26.36
21236;BME280;10775;42.678;26.324;2022-07-23T11:37:36;98525.34;;;36.90;25.85
21236;BME280;10775;42.678;26.324;2022-07-23T11:40:06;98523.09;;;36.59;24.25
21236;BME280;10775;42.678;26.324;2022-07-23T11:42:34;98515.81;;;37.14;23.82
21236;BME280;10775;42.678;26.324;2022-07-23T11:45:00;98509.13;;;37.30;24.37
21236;BME280;10775;42.678;26.324;2022-07-23T11:47:26;98513.63;;;37.77;23.71
21236;BME280;10775;42.678;26.324;2022-07-23T11:49:57;98509.22;;;37.70;23.65
21236;BME280;10775;42.678;26.324;2022-07-23T11:52:24;98508.31;;;37.36;23.50
21236;BME280;10775;42.678;26.324;2022-07-23T11:54:53;98501.84;;;37.43;23.84
21236;BME280;10775;42.678;26.324;2022-07-23T11:57:21;98507.53;;;37.75;23.25
21236;BME280;10775;42.678;26.324;2022-07-23T11:59:52;98499.91;;;37.17;23.43
21236;BME280;10775;42.678;26.324;2022-07-23T12:02:19;98513.94;;;36.38;23.91
21236;BME280;10775;42.678;26.324;2022-07-23T12:04:46;98504.16;;;36.44;23.72
21236;BME280;10775;42.678;26.324;2022-07-23T12:07:33;98503.47;;;36.70;23.14
21236;BME280;10775;42.678;26.324;2022-07-23T12:10:04;98509.75;;;36.70;22.29
21236;BME280;10775;42.678;26.324;2022-07-23T12:12:38;98512.59;;;36.21;23.19
21236;BME280;10775;42.678;26.324;2022-07-23T12:15:04;98502.88;;;36.40;22.34
21236;BME280;10775;42.678;26.324;2022-07-23T12:17:33;98505.38;;;36.69;23.10
21236;BME280;10775;42.678;26.324;2022-07-23T12:20:00;98510.19;;;36.74;24.50
21236;BME280;10775;42.678;26.324;2022-07-23T12:22:34;98487.72;;;37.13;23.85
21236;BME280;10775;42.678;26.324;2022-07-23T12:25:04;98498.91;;;36.77;22.82
21236;BME280;10775;42.678;26.324;2022-07-23T12:27:30;98481.28;;;36.73;23.84
21236;BME280;10775;42.678;26.324;2022-07-23T12:29:56;98487.38;;;36.40;23.40
21236;BME280;10775;42.678;26.324;2022-07-23T12:32:27;98486.19;;;36.49;23.49
21236;BME280;10775;42.678;26.324;2022-07-23T12:35:07;98483.69;;;36.54;23.75
21236;BME280;10775;42.678;26.324;2022-07-23T12:37:36;98486.78;;;36.45;23.56
21236;BME280;10775;42.678;26.324;2022-07-23T12:43:06;98467.97;;;36.98;22.93
21236;BME280;10775;42.678;26.324;2022-07-23T12:45:44;98482.19;;;36.87;23.18
21236;BME280;10775;42.678;26.324;2022-07-23T12:48:28;98474.66;;;36.47;23.52
21236;BME280;10775;42.678;26.324;2022-07-23T12:53:29;98470.69;;;36.50;23.32
21236;BME280;10775;42.678;26.324;2022-07-23T12:56:07;98469.59;;;36.86;22.69
21236;BME280;10775;42.678;26.324;2022-07-23T12:59:06;98474.53;;;36.62;23.27
21236;BME280;10775;42.678;26.324;2022-07-23T13:01:39;98473.78;;;36.82;23.50
21236;BME280;10775;42.678;26.324;2022-07-23T13:04:10;98470.34;;;37.21;22.51
21236;BME280;10775;42.678;26.324;2022-07-23T13:06:50;98476.06;;;36.78;23.21
21236;BME280;10775;42.678;26.324;2022-07-23T13:09:22;98481.66;;;36.63;23.62
21236;BME280;10775;42.678;26.324;2022-07-23T13:11:49;98476.94;;;36.44;24.66
21236;BME280;10775;42.678;26.324;2022-07-23T13:14:16;98474.66;;;36.47;25.68
21236;BME280;10775;42.678;26.324;2022-07-23T13:16:43;98475.19;;;36.64;23.23
21236;BME280;10775;42.678;26.324;2022-07-23T13:19:09;98469.22;;;36.95;23.13
21236;BME280;10775;42.678;26.324;2022-07-23T13:21:35;98480.53;;;36.92;22.87
21236;BME280;10775;42.678;26.324;2022-07-23T13:24:00;98468.69;;;37.40;22.50
21236;BME280;10775;42.678;26.324;2022-07-23T13:26:27;98471.47;;;37.53;21.56
21236;BME280;10775;42.678;26.324;2022-07-23T13:28:53;98463.06;;;37.48;21.33
21236;BME280;10775;42.678;26.324;2022-07-23T13:31:18;98471.41;;;37.20;22.17
21236;BME280;10775;42.678;26.324;2022-07-23T13:33:44;98464.38;;;36.91;22.40
21236;BME280;10775;42.678;26.324;2022-07-23T13:36:10;98461.44;;;36.86;22.62
21236;BME280;10775;42.678;26.324;2022-07-23T13:38:36;98461.09;;;36.54;22.72
21236;BME280;10775;42.678;26.324;2022-07-23T13:41:02;98451.94;;;36.27;23.54
21236;BME280;10775;42.678;26.324;2022-07-23T13:43:30;98455.94;;;36.72;22.88